Time;durP1;ratioP1;P1;durP2;ratioP2;P2;SDS_P1;SDS_P2;PMS_P1;PMS_P2;Temp;Humidity;BMP_temperature;BMP_pressure;BME280_temperature;BME280_humidity;BME280_pressure;Samples;Min_cycle;Max_cycle;Signal;HPM_P1;HPM_P2
2023/07/13 00:00:47;;;;;;;0.60;0.60;;;;;;;;;;7398991;19;20145;-89
2023/07/13 00:03:14;;;;;;;0.43;0.43;;;;;;;;;;7394865;19;20164;-89
2023/07/13 00:05:41;;;;;;;0.60;0.60;;;;;;;;;;7396988;19;20593;-89
2023/07/13 00:08:08;;;;;;;0.70;0.70;;;;;;;;;;7396325;19;20179;-89
2023/07/13 00:10:40;;;;;;;0.73;0.55;;;;;;;;;;7395869;19;20228;-89
2023/07/13 00:13:08;;;;;;;1.20;0.70;;;;;;;;;;7398112;19;20176;-89
2023/07/13 00:15:35;;;;;;;0.68;0.68;;;;;;;;;;7395667;19;20141;-89
2023/07/13 00:18:02;;;;;;;0.73;0.73;;;;;;;;;;7397726;19;20640;-89
2023/07/13 00:20:29;;;;;;;0.63;0.63;;;;;;;;;;7408333;19;20177;-89
2023/07/13 00:22:56;;;;;;;0.50;0.50;;;;;;;;;;7413118;19;20161;-89
2023/07/13 00:25:27;;;;;;;0.77;0.52;;;;;;;;;;7424360;19;20165;-88
2023/07/13 00:27:55;;;;;;;0.60;0.60;;;;;;;;;;7415410;19;20162;-88
2023/07/13 00:30:22;;;;;;;0.65;0.65;;;;;;;;;;7427365;19;20139;-88
2023/07/13 00:32:48;;;;;;;0.50;0.50;;;;;;;;;;7424693;19;20494;-89
2023/07/13 00:35:25;;;;;;;0.63;0.63;;;;;;;;;;7419134;19;20137;-89
2023/07/13 00:37:52;;;;;;;0.73;0.73;;;;;;;;;;7404451;19;20199;-88
2023/07/13 00:40:18;;;;;;;0.50;0.50;;;;;;;;;;7403739;19;20635;-89
2023/07/13 00:42:45;;;;;;;0.50;0.50;;;;;;;;;;7404265;19;20156;-89
2023/07/13 00:45:12;;;;;;;1.00;1.00;;;;;;;;;;7399796;19;20644;-90
2023/07/13 00:47:39;;;;;;;2.17;0.82;;;;;;;;;;7403607;19;20171;-89
2023/07/13 00:50:08;;;;;;;0.40;0.40;;;;;;;;;;7400449;19;20136;-90
2023/07/13 00:52:38;;;;;;;1.25;1.15;;;;;;;;;;7397184;19;20133;-90
2023/07/13 00:55:05;;;;;;;0.73;0.73;;;;;;;;;;7398665;19;20613;-90
2023/07/13 00:57:31;;;;;;;0.70;0.70;;;;;;;;;;7397252;19;20173;-89
2023/07/13 01:00:06;;;;;;;0.68;0.68;;;;;;;;;;7399652;19;20129;-90
2023/07/13 01:02:33;;;;;;;0.47;0.47;;;;;;;;;;7396264;19;20137;-89
2023/07/13 01:05:01;;;;;;;0.45;0.45;;;;;;;;;;7394138;19;20140;-89
2023/07/13 01:07:28;;;;;;;0.70;0.70;;;;;;;;;;7397977;19;20168;-89
2023/07/13 01:09:55;;;;;;;0.30;0.30;;;;;;;;;;7399113;19;20204;-90
2023/07/13 01:12:21;;;;;;;0.65;0.65;;;;;;;;;;7401223;19;20134;-89
2023/07/13 01:14:48;;;;;;;0.50;0.50;;;;;;;;;;7404451;19;20125;-89
2023/07/13 01:17:15;;;;;;;0.40;0.40;;;;;;;;;;7403181;19;20165;-89
2023/07/13 01:19:43;;;;;;;0.30;0.30;;;;;;;;;;7401106;19;20144;-89
2023/07/13 01:22:15;;;;;;;0.47;0.47;;;;;;;;;;7398982;19;20160;-90
2023/07/13 01:24:44;;;;;;;2.08;0.70;;;;;;;;;;7396220;19;20624;-89
2023/07/13 01:27:13;;;;;;;0.85;0.85;;;;;;;;;;7400685;19;20186;-90
2023/07/13 01:29:43;;;;;;;0.57;0.57;;;;;;;;;;7394756;19;20125;-89
2023/07/13 01:32:12;;;;;;;0.63;0.63;;;;;;;;;;7396499;19;20538;-89
2023/07/13 01:34:42;;;;;;;0.60;0.60;;;;;;;;;;7393785;19;20798;-90
2023/07/13 01:37:10;;;;;;;0.57;0.57;;;;;;;;;;7391180;19;20549;-90
2023/07/13 01:39:37;;;;;;;0.60;0.60;;;;;;;;;;7396360;19;20189;-89
2023/07/13 01:42:04;;;;;;;0.38;0.38;;;;;;;;;;7396178;19;20141;-90
2023/07/13 01:44:30;;;;;;;0.75;0.50;;;;;;;;;;7395083;19;20590;-90
2023/07/13 01:46:57;;;;;;;0.63;0.63;;;;;;;;;;7393332;19;20536;-89
2023/07/13 01:49:24;;;;;;;0.47;0.47;;;;;;;;;;7392710;19;20542;-90
2023/07/13 01:51:51;;;;;;;0.60;0.60;;;;;;;;;;7398055;19;20137;-89
2023/07/13 01:54:17;;;;;;;0.75;0.75;;;;;;;;;;7401283;19;20143;-89
2023/07/13 01:56:44;;;;;;;0.30;0.30;;;;;;;;;;7397272;19;20164;-89
2023/07/13 01:59:11;;;;;;;0.40;0.40;;;;;;;;;;7401117;19;20125;-90
2023/07/13 02:01:37;;;;;;;0.88;0.88;;;;;;;;;;7399484;19;20530;-91
2023/07/13 02:04:04;;;;;;;0.65;0.52;;;;;;;;;;7404305;19;20147;-90
2023/07/13 02:06:31;;;;;;;0.40;0.40;;;;;;;;;;7400246;19;20140;-89
2023/07/13 02:08:58;;;;;;;0.40;0.40;;;;;;;;;;7400907;19;20139;-89
2023/07/13 02:11:25;;;;;;;0.38;0.38;;;;;;;;;;7397547;19;20134;-89
2023/07/13 02:13:52;;;;;;;0.50;0.50;;;;;;;;;;7396546;19;20469;-91
2023/07/13 02:16:18;;;;;;;0.73;0.73;;;;;;;;;;7396476;19;20145;-90
2023/07/13 02:18:45;;;;;;;0.40;0.40;;;;;;;;;;7397328;19;20557;-90
2023/07/13 02:21:12;;;;;;;0.90;0.90;;;;;;;;;;7396942;19;20133;-90
2023/07/13 02:23:38;;;;;;;0.45;0.45;;;;;;;;;;7396858;19;20144;-90
2023/07/13 02:26:05;;;;;;;0.50;0.50;;;;;;;;;;7396453;19;20145;-90
2023/07/13 02:28:31;;;;;;;1.17;1.08;;;;;;;;;;7392135;19;20364;-89
2023/07/13 02:31:08;;;;;;;0.75;0.75;;;;;;;;;;7397822;19;20143;-89
2023/07/13 02:33:34;;;;;;;0.50;0.50;;;;;;;;;;7396678;19;20143;-89
2023/07/13 02:36:02;;;;;;;0.73;0.68;;;;;;;;;;7396059;19;20144;-89
2023/07/13 02:38:28;;;;;;;0.82;0.60;;;;;;;;;;7391804;19;20172;-89
2023/07/13 02:40:55;;;;;;;1.05;0.88;;;;;;;;;;7394938;19;20143;-89
2023/07/13 02:43:22;;;;;;;0.30;0.30;;;;;;;;;;7395283;19;20143;-89
2023/07/13 02:45:49;;;;;;;0.70;0.70;;;;;;;;;;7393353;19;21057;-89
2023/07/13 02:48:15;;;;;;;0.40;0.40;;;;;;;;;;7393187;19;20166;-89
2023/07/13 02:50:43;;;;;;;0.93;0.93;;;;;;;;;;7393890;19;20161;-89
2023/07/13 02:53:10;;;;;;;0.63;0.63;;;;;;;;;;7396049;19;20125;-89
2023/07/13 02:55:37;;;;;;;0.30;0.30;;;;;;;;;;7396471;19;20140;-89
2023/07/13 02:58:03;;;;;;;0.63;0.63;;;;;;;;;;7395478;19;20216;-89
2023/07/13 03:00:30;;;;;;;0.50;0.50;;;;;;;;;;7394758;19;20129;-89
2023/07/13 03:02:57;;;;;;;0.47;0.47;;;;;;;;;;7392673;19;20164;-89
2023/07/13 03:05:24;;;;;;;0.45;0.45;;;;;;;;;;7393137;19;20144;-90
2023/07/13 03:07:50;;;;;;;0.65;0.65;;;;;;;;;;7394397;19;20164;-89
2023/07/13 03:10:17;;;;;;;0.50;0.50;;;;;;;;;;7395250;19;20139;-90
2023/07/13 03:12:44;;;;;;;0.50;0.50;;;;;;;;;;7394848;19;20204;-89
2023/07/13 03:15:11;;;;;;;0.63;0.63;;;;;;;;;;7389459;19;20140;-89
2023/07/13 03:17:37;;;;;;;0.30;0.30;;;;;;;;;;7392586;19;20175;-89
2023/07/13 03:20:05;;;;;;;0.40;0.40;;;;;;;;;;7391732;19;20141;-89
2023/07/13 03:22:32;;;;;;;0.32;0.32;;;;;;;;;;7392777;19;20137;-90
2023/07/13 03:24:59;;;;;;;0.60;0.60;;;;;;;;;;7387433;19;20147;-90
2023/07/13 03:27:25;;;;;;;0.52;0.52;;;;;;;;;;7385794;19;20171;-87
2023/07/13 03:29:52;;;;;;;0.50;0.50;;;;;;;;;;7388613;19;20133;-89
2023/07/13 03:32:18;;;;;;;0.30;0.30;;;;;;;;;;7386600;19;20137;-89
2023/07/13 03:34:45;;;;;;;0.60;0.60;;;;;;;;;;7391097;19;20155;-90
2023/07/13 03:37:12;;;;;;;0.40;0.40;;;;;;;;;;7387419;19;20558;-90
2023/07/13 03:39:38;;;;;;;0.55;0.55;;;;;;;;;;7390135;19;20621;-88
2023/07/13 03:42:06;;;;;;;0.30;0.30;;;;;;;;;;7388303;19;20140;-89
2023/07/13 03:44:32;;;;;;;0.50;0.50;;;;;;;;;;7385277;19;20144;-90
2023/07/13 03:46:59;;;;;;;0.40;0.40;;;;;;;;;;7385953;19;20155;-91
2023/07/13 03:49:26;;;;;;;1.17;0.68;;;;;;;;;;7387385;19;20137;-90
2023/07/13 03:51:52;;;;;;;0.30;0.30;;;;;;;;;;7387251;19;20141;-90
2023/07/13 03:54:19;;;;;;;0.60;0.60;;;;;;;;;;7389286;19;20137;-88
2023/07/13 03:56:46;;;;;;;0.88;0.80;;;;;;;;;;7385376;19;20153;-90
2023/07/13 03:59:13;;;;;;;0.75;0.75;;;;;;;;;;7391220;19;20668;-90
2023/07/13 04:01:40;;;;;;;0.52;0.52;;;;;;;;;;7396636;19;20133;-89
2023/07/13 04:04:06;;;;;;;0.40;0.40;;;;;;;;;;7395964;19;20136;-90
2023/07/13 04:06:34;;;;;;;0.40;0.40;;;;;;;;;;7397406;19;20618;-90
2023/07/13 04:09:05;;;;;;;0.68;0.65;;;;;;;;;;7394975;19;20152;-90
2023/07/13 04:11:32;;;;;;;0.80;0.47;;;;;;;;;;7395726;19;20133;-89
2023/07/13 04:13:59;;;;;;;0.40;0.40;;;;;;;;;;7391183;19;20135;-90
2023/07/13 04:16:26;;;;;;;0.60;0.60;;;;;;;;;;7396935;19;20188;-90
2023/07/13 04:18:59;;;;;;;0.63;0.63;;;;;;;;;;7398913;19;20504;-89
2023/07/13 04:21:29;;;;;;;0.47;0.47;;;;;;;;;;7400441;19;20140;-89
2023/07/13 04:23:55;;;;;;;0.50;0.50;;;;;;;;;;7397643;19;20665;-89
2023/07/13 04:26:23;;;;;;;0.40;0.40;;;;;;;;;;7397258;19;20213;-88
2023/07/13 04:28:51;;;;;;;0.30;0.30;;;;;;;;;;7390437;19;20678;-90
2023/07/13 04:31:17;;;;;;;0.40;0.40;;;;;;;;;;7393274;19;20137;-89
2023/07/13 04:33:44;;;;;;;0.60;0.60;;;;;;;;;;7393319;19;20137;-89
2023/07/13 04:36:15;;;;;;;2.65;0.63;;;;;;;;;;7394272;19;20148;-88
2023/07/13 04:38:42;;;;;;;0.43;0.43;;;;;;;;;;7396029;19;20605;-90
2023/07/13 04:41:08;;;;;;;0.50;0.50;;;;;;;;;;7393634;19;20153;-89
2023/07/13 04:43:35;;;;;;;0.57;0.57;;;;;;;;;;7398536;19;20137;-90
2023/07/13 04:46:11;;;;;;;0.30;0.30;;;;;;;;;;7393807;19;20173;-90
2023/07/13 04:48:38;;;;;;;0.60;0.60;;;;;;;;;;7398284;19;20144;-88
2023/07/13 04:51:05;;;;;;;1.20;1.00;;;;;;;;;;7395518;19;20158;-88
2023/07/13 04:53:34;;;;;;;0.68;0.68;;;;;;;;;;7392560;19;20148;-89
2023/07/13 04:56:02;;;;;;;0.40;0.40;;;;;;;;;;7394786;19;20146;-90
2023/07/13 04:58:28;;;;;;;0.63;0.63;;;;;;;;;;7391894;19;20180;-90
2023/07/13 05:01:03;;;;;;;0.50;0.50;;;;;;;;;;7390304;19;20221;-90
2023/07/13 05:03:30;;;;;;;1.13;0.60;;;;;;;;;;7396128;19;20164;-89
2023/07/13 05:06:02;;;;;;;0.60;0.60;;;;;;;;;;7393414;19;20133;-90
2023/07/13 05:08:29;;;;;;;0.68;0.68;;;;;;;;;;7392283;19;20252;-89
2023/07/13 05:10:56;;;;;;;0.38;0.38;;;;;;;;;;7391740;19;20160;-88
2023/07/13 05:13:23;;;;;;;0.30;0.30;;;;;;;;;;7393991;19;20137;-88
2023/07/13 05:15:58;;;;;;;0.40;0.40;;;;;;;;;;7395814;19;20200;-92
2023/07/13 05:18:24;;;;;;;0.30;0.30;;;;;;;;;;7398447;19;20164;-89
2023/07/13 05:21:03;;;;;;;0.40;0.40;;;;;;;;;;7398615;19;20155;-88
2023/07/13 05:23:30;;;;;;;0.73;0.73;;;;;;;;;;7393046;19;20151;-89
2023/07/13 05:25:57;;;;;;;0.30;0.30;;;;;;;;;;7384499;19;20137;-91
2023/07/13 05:28:25;;;;;;;0.40;0.40;;;;;;;;;;7387840;19;20174;-92
2023/07/13 05:30:51;;;;;;;0.50;0.50;;;;;;;;;;7385481;19;20155;-90
2023/07/13 05:33:18;;;;;;;1.27;0.70;;;;;;;;;;7390307;19;20136;-90
2023/07/13 05:35:45;;;;;;;0.40;0.40;;;;;;;;;;7389382;19;20144;-92
2023/07/13 05:38:14;;;;;;;0.57;0.57;;;;;;;;;;7385789;19;20180;-90
2023/07/13 05:44:45;;;;;;;0.35;0.35;;;;;;;;;;7389483;19;20125;-89
2023/07/13 05:47:14;;;;;;;0.30;0.30;;;;;;;;;;7392250;19;20625;-90
2023/07/13 05:49:42;;;;;;;0.38;0.38;;;;;;;;;;7394073;19;20133;-90
2023/07/13 05:52:09;;;;;;;0.70;0.65;;;;;;;;;;7387625;19;20144;-91
2023/07/13 05:54:36;;;;;;;2.10;1.10;;;;;;;;;;7385202;19;20161;-88
2023/07/13 05:57:03;;;;;;;0.47;0.47;;;;;;;;;;7387259;19;20167;-89
2023/07/13 05:59:33;;;;;;;0.60;0.60;;;;;;;;;;7389998;19;20204;-90
2023/07/13 06:01:59;;;;;;;0.30;0.30;;;;;;;;;;7386704;19;20141;-90
2023/07/13 06:04:26;;;;;;;0.60;0.60;;;;;;;;;;7387292;19;20137;-90
2023/07/13 06:07:02;;;;;;;2.08;0.70;;;;;;;;;;7393906;19;20140;-89
2023/07/13 06:09:30;;;;;;;0.43;0.43;;;;;;;;;;7392045;19;20141;-88
2023/07/13 06:11:57;;;;;;;0.45;0.45;;;;;;;;;;7396989;19;20137;-90
2023/07/13 06:14:26;;;;;;;0.45;0.45;;;;;;;;;;7391311;19;20158;-91
2023/07/13 06:16:52;;;;;;;1.15;1.13;;;;;;;;;;7392534;19;20539;-91
2023/07/13 06:19:19;;;;;;;0.50;0.50;;;;;;;;;;7390864;19;20597;-91
2023/07/13 06:21:46;;;;;;;0.50;0.50;;;;;;;;;;7393856;19;20131;-92
2023/07/13 06:24:12;;;;;;;0.60;0.60;;;;;;;;;;7390664;19;20606;-89
2023/07/13 06:26:39;;;;;;;0.30;0.30;;;;;;;;;;7389404;19;20187;-91
2023/07/13 06:29:06;;;;;;;2.92;0.60;;;;;;;;;;7391855;19;20477;-89
2023/07/13 06:31:32;;;;;;;0.47;0.47;;;;;;;;;;7390049;19;20129;-91
2023/07/13 06:33:59;;;;;;;0.77;0.77;;;;;;;;;;7393282;19;20176;-91
2023/07/13 06:36:26;;;;;;;0.40;0.40;;;;;;;;;;7391926;19;20481;-90
2023/07/13 06:38:53;;;;;;;0.50;0.50;;;;;;;;;;7393461;19;20148;-90
2023/07/13 06:41:19;;;;;;;0.68;0.68;;;;;;;;;;7392633;19;20133;-91
2023/07/13 06:43:46;;;;;;;4.55;0.80;;;;;;;;;;7392685;19;20488;-91
2023/07/13 06:46:13;;;;;;;0.38;0.38;;;;;;;;;;7389288;19;20883;-90
2023/07/13 06:48:40;;;;;;;1.95;0.50;;;;;;;;;;7391975;19;20428;-90
2023/07/13 06:51:06;;;;;;;0.30;0.30;;;;;;;;;;7392758;19;20676;-89
2023/07/13 06:53:33;;;;;;;0.38;0.38;;;;;;;;;;7391879;19;20141;-91
2023/07/13 06:56:00;;;;;;;0.55;0.55;;;;;;;;;;7389931;19;20141;-90
2023/07/13 06:58:26;;;;;;;0.50;0.50;;;;;;;;;;7389176;19;20178;-90
2023/07/13 07:00:53;;;;;;;0.38;0.38;;;;;;;;;;7394397;19;20139;-91
2023/07/13 07:03:20;;;;;;;1.35;0.70;;;;;;;;;;7396457;19;20177;-90
2023/07/13 07:05:47;;;;;;;1.05;1.05;;;;;;;;;;7397756;19;20121;-90
2023/07/13 07:08:14;;;;;;;1.25;1.15;;;;;;;;;;7398108;19;20236;-90
2023/07/13 07:10:41;;;;;;;0.90;0.90;;;;;;;;;;7399356;19;20131;-90
2023/07/13 07:13:08;;;;;;;0.30;0.30;;;;;;;;;;7395777;19;20661;-88
2023/07/13 07:15:35;;;;;;;0.30;0.30;;;;;;;;;;7396442;19;20145;-91
2023/07/13 07:18:02;;;;;;;0.40;0.40;;;;;;;;;;7395267;19;20209;-90
2023/07/13 07:20:30;;;;;;;1.65;0.50;;;;;;;;;;7394717;19;20133;-90
2023/07/13 07:22:57;;;;;;;0.50;0.50;;;;;;;;;;7393721;19;20204;-91
2023/07/13 07:25:24;;;;;;;0.45;0.45;;;;;;;;;;7391796;19;20613;-90
2023/07/13 07:27:50;;;;;;;0.52;0.52;;;;;;;;;;7391224;19;20185;-90
2023/07/13 07:30:20;;;;;;;0.50;0.50;;;;;;;;;;7391617;19;20189;-90
2023/07/13 07:32:50;;;;;;;0.57;0.57;;;;;;;;;;7391507;19;20622;-89
2023/07/13 07:35:19;;;;;;;0.40;0.40;;;;;;;;;;7394903;19;20165;-90
2023/07/13 07:37:52;;;;;;;0.57;0.57;;;;;;;;;;7392614;19;20507;-91
2023/07/13 07:40:36;;;;;;;0.50;0.50;;;;;;;;;;7390491;19;20137;-90
2023/07/13 07:43:07;;;;;;;0.60;0.60;;;;;;;;;;7391699;19;20200;-91
2023/07/13 07:45:34;;;;;;;0.90;0.90;;;;;;;;;;7390066;19;20132;-90
2023/07/13 07:48:01;;;;;;;0.60;0.57;;;;;;;;;;7387300;19;20157;-92
2023/07/13 07:50:28;;;;;;;0.40;0.40;;;;;;;;;;7385299;19;20152;-93
2023/07/13 07:56:12;;;;;;;0.47;0.47;;;;;;;;;;7390408;19;20156;-92
2023/07/13 07:58:44;;;;;;;0.40;0.40;;;;;;;;;;7387407;19;20120;-91
2023/07/13 08:05:51;;;;;;;0.30;0.30;;;;;;;;;;7391846;19;20124;-91
2023/07/13 08:13:50;;;;;;;3.35;0.93;;;;;;;;;;7389846;19;20216;-90
2023/07/13 13:38:04;;;;;;;0.40;0.40;;;;;;;;;;7356258;19;20192;-89
2023/07/13 13:40:55;;;;;;;0.55;0.55;;;;;;;;;;7396808;19;20192;-88
2023/07/13 13:43:26;;;;;;;1.15;1.05;;;;;;;;;;7400915;19;20212;-89
2023/07/13 13:46:02;;;;;;;0.40;0.40;;;;;;;;;;7399270;19;20144;-88
2023/07/13 13:48:33;;;;;;;0.52;0.52;;;;;;;;;;7395072;19;20172;-88
2023/07/13 13:51:01;;;;;;;0.57;0.57;;;;;;;;;;7394979;19;20204;-89
2023/07/13 13:53:32;;;;;;;0.35;0.35;;;;;;;;;;7394536;19;20357;-89
2023/07/13 13:55:59;;;;;;;0.70;0.70;;;;;;;;;;7392148;19;20898;-89
2023/07/13 13:58:26;;;;;;;0.40;0.40;;;;;;;;;;7393092;19;20167;-88
2023/07/13 14:00:57;;;;;;;1.65;0.85;;;;;;;;;;7394725;19;20539;-90
2023/07/13 14:03:25;;;;;;;0.50;0.50;;;;;;;;;;7395664;19;20132;-88
2023/07/13 14:05:51;;;;;;;0.60;0.60;;;;;;;;;;7394727;19;20137;-89
2023/07/13 14:08:21;;;;;;;0.30;0.30;;;;;;;;;;7394289;19;20867;-86
2023/07/13 14:11:13;;;;;;;1.48;1.10;;;;;;;;;;7394408;19;20132;-88
2023/07/13 14:13:49;;;;;;;0.57;0.57;;;;;;;;;;7393735;19;20493;-88
2023/07/13 14:16:20;;;;;;;0.40;0.40;;;;;;;;;;7395188;19;20204;-88
2023/07/13 14:18:51;;;;;;;0.60;0.60;;;;;;;;;;7393238;19;20507;-90
2023/07/13 14:25:10;;;;;;;0.40;0.40;;;;;;;;;;7390838;19;20141;-89
2023/07/13 14:35:47;;;;;;;;;;;;;;;;;;;;;
2023/07/13 15:06:14;;;;;;;0.63;0.55;;;;;;;;;;7392247;19;20604;-87
2023/07/13 15:12:35;;;;;;;0.60;0.60;;;;;;;;;;7390806;19;20136;-89
2023/07/13 15:16:09;;;;;;;;;;;;;;;;;;;;;
2023/07/13 15:25:40;;;;;;;0.30;0.30;;;;;;;;;;7400770;19;20130;-90
2023/07/13 15:28:07;;;;;;;0.40;0.40;;;;;;;;;;7420111;19;20250;-88
2023/07/13 15:33:37;;;;;;;0.63;0.63;;;;;;;;;;7419210;19;20181;-88
2023/07/13 15:36:04;;;;;;;0.40;0.40;;;;;;;;;;7419925;19;20140;-90
2023/07/13 15:38:31;;;;;;;0.35;0.35;;;;;;;;;;7418032;19;20157;-90
2023/07/13 15:40:58;;;;;;;0.40;0.40;;;;;;;;;;7418438;19;20127;-90
2023/07/13 15:43:26;;;;;;;0.50;0.50;;;;;;;;;;7420229;19;20152;-91
2023/07/13 15:49:13;;;;;;;0.93;0.80;;;;;;;;;;7416135;19;20136;-89
2023/07/13 15:51:40;;;;;;;1.38;0.80;;;;;;;;;;7395845;19;20140;-88
2023/07/13 15:54:12;;;;;;;0.70;0.70;;;;;;;;;;7392233;19;20486;-89
2023/07/13 15:56:40;;;;;;;0.40;0.40;;;;;;;;;;7392044;19;20156;-88
2023/07/13 15:59:14;;;;;;;0.55;0.55;;;;;;;;;;7395195;19;20508;-89
2023/07/13 16:01:41;;;;;;;0.88;0.88;;;;;;;;;;7395071;19;20141;-89
2023/07/13 16:04:08;;;;;;;0.93;0.93;;;;;;;;;;7398721;19;20146;-89
2023/07/13 16:06:48;;;;;;;1.75;0.80;;;;;;;;;;7399863;19;20165;-89
2023/07/13 16:09:28;;;;;;;1.15;1.00;;;;;;;;;;7395728;19;20137;-89
2023/07/13 16:11:57;;;;;;;0.50;0.50;;;;;;;;;;7392953;19;20253;-89
2023/07/13 16:14:59;;;;;;;0.55;0.55;;;;;;;;;;7393841;19;20301;-89
2023/07/13 16:18:16;;;;;;;0.38;0.38;;;;;;;;;;7392753;19;20657;-89
2023/07/13 16:21:02;;;;;;;0.52;0.52;;;;;;;;;;7392893;19;20156;-89
2023/07/13 16:23:32;;;;;;;1.05;1.05;;;;;;;;;;7392148;19;20181;-87
2023/07/13 16:26:39;;;;;;;0.50;0.50;;;;;;;;;;7389730;19;20244;-88
2023/07/13 16:29:15;;;;;;;0.60;0.60;;;;;;;;;;7391262;19;20634;-88
2023/07/13 16:32:02;;;;;;;0.50;0.50;;;;;;;;;;7393371;19;20141;-87
2023/07/13 16:34:35;;;;;;;0.40;0.40;;;;;;;;;;7395912;19;20149;-89
2023/07/13 16:37:04;;;;;;;9.45;1.10;;;;;;;;;;7392417;19;21002;-91
2023/07/13 16:39:31;;;;;;;0.40;0.40;;;;;;;;;;7398363;19;20771;-88
2023/07/13 16:41:58;;;;;;;0.50;0.50;;;;;;;;;;7396917;19;20141;-89
2023/07/13 16:44:28;;;;;;;0.98;0.90;;;;;;;;;;7399855;19;20144;-88
2023/07/13 16:47:00;;;;;;;0.47;0.47;;;;;;;;;;7394350;19;20290;-88
2023/07/13 16:49:38;;;;;;;0.60;0.60;;;;;;;;;;7392646;19;20157;-89
2023/07/13 16:53:17;;;;;;;0.50;0.50;;;;;;;;;;7392216;19;20174;-88
2023/07/13 16:56:21;;;;;;;0.30;0.30;;;;;;;;;;7394610;19;20241;-89
2023/07/13 16:59:39;;;;;;;0.70;0.70;;;;;;;;;;7396089;19;20193;-88
2023/07/13 17:02:49;;;;;;;0.30;0.30;;;;;;;;;;7397669;19;20141;-89
2023/07/13 17:05:50;;;;;;;0.38;0.38;;;;;;;;;;7396258;19;20140;-88
2023/07/13 17:08:32;;;;;;;0.43;0.43;;;;;;;;;;7399474;19;20220;-88
2023/07/13 17:11:49;;;;;;;0.47;0.47;;;;;;;;;;7402520;19;20628;-88
2023/07/13 17:15:01;;;;;;;0.57;0.57;;;;;;;;;;7392358;19;20153;-89
2023/07/13 17:36:01;;;;;;;0.70;0.70;;;;;;;;;;7400443;19;20116;-87
2023/07/13 17:43:15;;;;;;;0.73;0.73;;;;;;;;;;7394233;19;20645;-88
2023/07/13 17:45:43;;;;;;;0.50;0.50;;;;;;;;;;7390992;19;20528;-88
2023/07/13 17:48:59;;;;;;;;;;;;;;;;;;;;;
2023/07/13 17:51:35;;;;;;;0.65;0.50;;;;;;;;;;7392680;19;20241;-86
2023/07/13 17:54:20;;;;;;;0.68;0.68;;;;;;;;;;7395252;19;20150;-85
2023/07/13 17:57:18;;;;;;;0.60;0.60;;;;;;;;;;7393437;19;20167;-85
2023/07/13 18:04:10;;;;;;;0.80;0.43;;;;;;;;;;7396424;19;20132;-86
2023/07/13 18:07:07;;;;;;;0.60;0.60;;;;;;;;;;7387762;19;20164;-86
2023/07/13 18:14:06;;;;;;;;;;;;;;;;;;;;;
2023/07/13 18:18:01;;;;;;;0.80;0.80;;;;;;;;;;7391593;19;20192;-86
2023/07/13 18:20:43;;;;;;;0.60;0.60;;;;;;;;;;7393677;19;20519;-86
2023/07/13 18:23:23;;;;;;;0.50;0.50;;;;;;;;;;7390676;19;20149;-85
2023/07/13 18:29:47;;;;;;;0.50;0.50;;;;;;;;;;7390634;19;20133;-86
2023/07/13 18:35:49;;;;;;;0.45;0.45;;;;;;;;;;7389267;19;20149;-86
2023/07/13 18:43:15;;;;;;;0.50;0.50;;;;;;;;;;7389604;19;20145;-87
2023/07/13 18:49:29;;;;;;;0.85;0.50;;;;;;;;;;7390232;19;20648;-86
2023/07/13 18:52:22;;;;;;;0.30;0.30;;;;;;;;;;7389241;19;20148;-87
2023/07/13 18:54:54;;;;;;;0.60;0.60;;;;;;;;;;7391234;19;20136;-86
2023/07/13 18:57:21;;;;;;;0.40;0.40;;;;;;;;;;7393710;19;20172;-87
2023/07/13 18:59:49;;;;;;;1.38;0.65;;;;;;;;;;7396206;19;20144;-86
2023/07/13 19:02:30;;;;;;;0.50;0.50;;;;;;;;;;7394406;19;20144;-86
2023/07/13 19:05:03;;;;;;;0.93;0.93;;;;;;;;;;7394526;19;20148;-86
2023/07/13 19:07:35;;;;;;;0.47;0.47;;;;;;;;;;7395017;19;20149;-86
2023/07/13 19:10:06;;;;;;;0.30;0.30;;;;;;;;;;7393950;19;20141;-86
2023/07/13 19:12:52;;;;;;;0.65;0.43;;;;;;;;;;7395220;19;20157;-85
2023/07/13 19:15:22;;;;;;;0.43;0.43;;;;;;;;;;7397860;19;20200;-86
2023/07/13 19:17:50;;;;;;;0.30;0.30;;;;;;;;;;7394257;19;20537;-86
2023/07/13 19:20:23;;;;;;;0.93;0.80;;;;;;;;;;7390304;19;20209;-85
2023/07/13 19:23:06;;;;;;;0.52;0.52;;;;;;;;;;7393840;19;20485;-85
2023/07/13 19:25:46;;;;;;;0.68;0.68;;;;;;;;;;7394462;19;20137;-86
2023/07/13 19:28:41;;;;;;;0.43;0.43;;;;;;;;;;7390964;19;20167;-86
2023/07/13 19:31:32;;;;;;;0.65;0.55;;;;;;;;;;7391559;19;20163;-86
2023/07/13 19:34:27;;;;;;;0.40;0.40;;;;;;;;;;7394336;19;20142;-86
2023/07/13 19:37:39;;;;;;;0.30;0.30;;;;;;;;;;7391503;19;20164;-85
2023/07/13 19:40:24;;;;;;;0.43;0.43;;;;;;;;;;7392315;19;20165;-85
2023/07/13 19:46:49;;;;;;;0.50;0.50;;;;;;;;;;7391603;19;20669;-85
2023/07/13 19:49:16;;;;;;;0.57;0.57;;;;;;;;;;7393471;19;20138;-85
2023/07/13 19:51:47;;;;;;;0.85;0.43;;;;;;;;;;7394111;19;20143;-86
2023/07/13 19:54:24;;;;;;;0.70;0.63;;;;;;;;;;7393561;19;20597;-86
2023/07/13 19:57:25;;;;;;;0.43;0.43;;;;;;;;;;7393591;19;20147;-86
2023/07/13 20:00:35;;;;;;;0.47;0.47;;;;;;;;;;7389915;19;20153;-86
2023/07/13 20:03:31;;;;;;;0.60;0.60;;;;;;;;;;7392645;19;20137;-86
2023/07/13 20:05:58;;;;;;;0.55;0.55;;;;;;;;;;7395063;19;20483;-86
2023/07/13 20:08:28;;;;;;;0.55;0.52;;;;;;;;;;7392209;19;20488;-86
2023/07/13 20:10:55;;;;;;;0.40;0.40;;;;;;;;;;7392653;19;20129;-86
2023/07/13 20:13:24;;;;;;;0.65;0.45;;;;;;;;;;7393626;19;20149;-86
2023/07/13 20:15:51;;;;;;;0.88;0.88;;;;;;;;;;7393235;19;20121;-86
2023/07/13 20:18:18;;;;;;;1.20;0.68;;;;;;;;;;7393044;19;20578;-86
2023/07/13 20:20:45;;;;;;;0.45;0.45;;;;;;;;;;7393279;19;20485;-86
2023/07/13 20:23:18;;;;;;;1.50;0.70;;;;;;;;;;7393408;19;20204;-86
2023/07/13 20:25:49;;;;;;;0.40;0.40;;;;;;;;;;7393373;19;20625;-86
2023/07/13 20:28:17;;;;;;;0.35;0.35;;;;;;;;;;7390278;19;20164;-86
2023/07/13 20:30:47;;;;;;;0.30;0.30;;;;;;;;;;7391500;19;20590;-85
2023/07/13 20:33:18;;;;;;;0.70;0.70;;;;;;;;;;7392950;19;20139;-86
2023/07/13 20:35:45;;;;;;;0.35;0.35;;;;;;;;;;7392924;19;20617;-85
2023/07/13 20:38:14;;;;;;;0.45;0.45;;;;;;;;;;7391443;19;20171;-85
2023/07/13 20:40:41;;;;;;;0.45;0.45;;;;;;;;;;7396272;19;20140;-85
2023/07/13 20:43:08;;;;;;;0.40;0.40;;;;;;;;;;7402254;19;20141;-85
2023/07/13 20:45:36;;;;;;;1.02;0.93;;;;;;;;;;7399891;19;20137;-87
2023/07/13 20:48:23;;;;;;;0.50;0.50;;;;;;;;;;7395163;19;20169;-87
2023/07/13 20:50:51;;;;;;;0.38;0.38;;;;;;;;;;7391901;19;20157;-88
2023/07/13 20:53:18;;;;;;;0.50;0.50;;;;;;;;;;7394627;19;20141;-87
2023/07/13 20:55:44;;;;;;;0.45;0.45;;;;;;;;;;7394500;19;20129;-87
2023/07/13 20:58:11;;;;;;;0.50;0.50;;;;;;;;;;7395209;19;20152;-87
2023/07/13 21:00:40;;;;;;;0.50;0.50;;;;;;;;;;7396847;19;20876;-87
2023/07/13 21:03:16;;;;;;;0.73;0.73;;;;;;;;;;7397400;19;20144;-87
2023/07/13 21:05:43;;;;;;;0.30;0.30;;;;;;;;;;7397363;19;20139;-87
2023/07/13 21:08:11;;;;;;;0.35;0.35;;;;;;;;;;7393783;19;20204;-87
2023/07/13 21:10:38;;;;;;;0.32;0.32;;;;;;;;;;7394184;19;20156;-87
2023/07/13 21:13:07;;;;;;;0.40;0.40;;;;;;;;;;7392813;19;20145;-87
2023/07/13 21:15:35;;;;;;;1.02;0.88;;;;;;;;;;7395384;19;20152;-87
2023/07/13 21:18:01;;;;;;;0.65;0.65;;;;;;;;;;7395033;19;20490;-86
2023/07/13 21:20:31;;;;;;;2.22;0.85;;;;;;;;;;7394093;19;20623;-86
2023/07/13 21:22:58;;;;;;;0.50;0.50;;;;;;;;;;7396349;19;20262;-87
2023/07/13 21:25:28;;;;;;;0.68;0.68;;;;;;;;;;7394665;19;20177;-87
2023/07/13 21:27:56;;;;;;;0.40;0.40;;;;;;;;;;7393746;19;20172;-86
2023/07/13 21:30:27;;;;;;;8.45;0.57;;;;;;;;;;7393804;19;20129;-89
2023/07/13 21:32:56;;;;;;;1.02;0.70;;;;;;;;;;7415183;19;20147;-85
2023/07/13 21:35:38;;;;;;;0.57;0.57;;;;;;;;;;7427150;19;20144;-86
2023/07/13 21:38:27;;;;;;;0.32;0.32;;;;;;;;;;7423835;19;20152;-85
2023/07/13 21:40:56;;;;;;;1.58;0.95;;;;;;;;;;7401565;19;20137;-87
2023/07/13 21:43:23;;;;;;;1.02;1.02;;;;;;;;;;7396692;19;20128;-87
2023/07/13 21:45:51;;;;;;;0.70;0.70;;;;;;;;;;7396901;19;20135;-87
2023/07/13 21:48:18;;;;;;;0.30;0.30;;;;;;;;;;7392722;19;20156;-87
2023/07/13 21:50:52;;;;;;;0.85;0.68;;;;;;;;;;7393982;19;20152;-87
2023/07/13 21:53:23;;;;;;;0.93;0.93;;;;;;;;;;7393455;19;20132;-87
2023/07/13 21:55:52;;;;;;;0.30;0.30;;;;;;;;;;7392394;19;20137;-87
2023/07/13 21:58:27;;;;;;;0.40;0.40;;;;;;;;;;7392381;19;20626;-88
2023/07/13 22:00:54;;;;;;;1.00;0.88;;;;;;;;;;7390653;19;20137;-87
2023/07/13 22:03:26;;;;;;;1.23;0.68;;;;;;;;;;7393317;19;20154;-86
2023/07/13 22:05:54;;;;;;;0.50;0.50;;;;;;;;;;7395897;19;20448;-87
2023/07/13 22:08:24;;;;;;;0.55;0.55;;;;;;;;;;7390318;19;20500;-87
2023/07/13 22:10:51;;;;;;;0.43;0.43;;;;;;;;;;7391851;19;20133;-87
2023/07/13 22:13:18;;;;;;;0.38;0.38;;;;;;;;;;7392109;19;20129;-87
2023/07/13 22:15:45;;;;;;;0.43;0.43;;;;;;;;;;7391032;19;20141;-87
2023/07/13 22:18:15;;;;;;;0.38;0.38;;;;;;;;;;7390042;19;20168;-87
2023/07/13 22:21:02;;;;;;;0.40;0.40;;;;;;;;;;7393416;19;20517;-87
2023/07/13 22:23:29;;;;;;;0.43;0.43;;;;;;;;;;7393156;19;20141;-88
2023/07/13 22:25:57;;;;;;;0.30;0.30;;;;;;;;;;7393321;19;20148;-87
2023/07/13 22:28:26;;;;;;;0.40;0.40;;;;;;;;;;7390809;19;20172;-88
2023/07/13 22:30:55;;;;;;;0.45;0.45;;;;;;;;;;7391315;19;20498;-87
2023/07/13 22:33:26;;;;;;;0.50;0.50;;;;;;;;;;7394074;19;20137;-87
2023/07/13 22:35:53;;;;;;;0.40;0.40;;;;;;;;;;7392607;19;20133;-88
2023/07/13 22:38:22;;;;;;;0.40;0.40;;;;;;;;;;7391232;19;20172;-90
2023/07/13 22:40:50;;;;;;;0.52;0.52;;;;;;;;;;7390265;19;20616;-90